createdAt,value
2019-02-10T00:04:39.871Z,7.68
2019-02-10T00:07:29.658Z,7.70
2019-02-10T00:10:19.409Z,7.71
2019-02-10T00:13:47.306Z,7.55
2019-02-10T00:16:37.094Z,7.60
2019-02-10T00:19:07.839Z,7.70
2019-02-10T00:22:16.782Z,7.59
2019-02-10T00:25:07.165Z,7.55
2019-02-10T00:27:49.707Z,7.54
2019-02-10T00:30:39.447Z,7.54
2019-02-10T00:33:21.791Z,7.57
2019-02-10T00:36:11.526Z,7.57
2019-02-10T00:38:54.400Z,7.50
2019-02-10T00:41:44.591Z,7.60
2019-02-10T00:44:26.677Z,7.65
2019-02-10T00:47:16.419Z,7.65
2019-02-10T00:49:59.151Z,7.65
2019-02-10T00:52:49.325Z,7.45
2019-02-10T00:55:32.187Z,7.62
2019-02-10T00:58:21.913Z,7.56
2019-02-10T01:01:04.297Z,7.62
2019-02-10T01:03:54.073Z,7.52
2019-02-10T01:06:41.426Z,7.60
2019-02-10T01:09:20.653Z,7.57
2019-02-10T01:12:10.864Z,7.56
2019-02-10T01:15:00.757Z,7.57
2019-02-10T01:17:50.472Z,7.56
2019-02-10T01:20:40.167Z,7.55
2019-02-10T01:23:29.899Z,7.55
2019-02-10T01:26:12.449Z,7.58
2019-02-10T01:29:02.177Z,7.57
2019-02-10T01:31:51.872Z,7.44
2019-02-10T01:34:34.567Z,7.45
2019-02-10T01:37:24.347Z,7.63
2019-02-10T01:40:07.711Z,7.58
2019-02-10T01:42:57.480Z,7.49
2019-02-10T01:45:47.253Z,7.64
2019-02-10T01:48:56.161Z,7.63
2019-02-10T01:51:38.432Z,7.62
2019-02-10T01:54:28.268Z,7.61
2019-02-10T01:57:18.061Z,7.61
2019-02-10T02:06:12.516Z,7.59
2019-02-10T02:11:58.038Z,7.58
2019-02-10T02:17:44.236Z,7.59
2019-02-10T02:20:33.951Z,7.67
2019-02-10T02:26:26.820Z,7.74
2019-02-10T02:29:09.061Z,7.78
2019-02-10T02:31:58.875Z,7.82
2019-02-10T02:34:48.595Z,7.81
2019-02-10T02:37:38.303Z,7.81
2019-02-10T02:40:20.961Z,7.78
2019-02-10T02:43:10.744Z,7.67
2019-02-10T02:46:00.469Z,7.76
2019-02-10T02:48:42.714Z,7.76
2019-02-10T02:51:32.488Z,7.75
2019-02-10T02:54:22.212Z,7.75
2019-02-10T02:57:11.960Z,7.75
2019-02-10T03:00:01.688Z,7.67
2019-02-10T03:02:43.656Z,7.70
2019-02-10T03:05:52.494Z,7.54
2019-02-10T03:08:35.753Z,7.69
2019-02-10T03:11:25.508Z,7.63
2019-02-10T03:14:10.214Z,7.61
2019-02-10T03:16:59.939Z,7.56
2019-02-10T03:19:41.981Z,7.54
2019-02-10T03:22:31.720Z,7.52
2019-02-10T03:25:13.766Z,7.50
2019-02-10T03:28:03.462Z,7.40
2019-02-10T03:30:45.486Z,7.41
2019-02-10T03:33:35.204Z,7.39
2019-02-10T03:36:17.134Z,7.32
2019-02-10T03:39:07.479Z,7.34
2019-02-10T03:41:50.212Z,7.32
2019-02-10T03:44:39.939Z,7.30
2019-02-10T03:47:22.420Z,7.18
2019-02-10T03:50:12.171Z,7.33
2019-02-10T03:52:54.183Z,7.28
2019-02-10T03:55:43.873Z,7.29
2019-02-10T03:58:26.356Z,6.93
2019-02-10T04:01:16.089Z,6.86
2019-02-10T04:03:59.051Z,7.00
2019-02-10T04:07:01.581Z,6.92
2019-02-10T04:09:44.077Z,6.98
2019-02-10T04:12:33.849Z,6.74
2019-02-10T04:15:16.657Z,6.74
2019-02-10T04:18:06.396Z,6.59
2019-02-10T04:20:48.806Z,6.54
2019-02-10T04:23:38.515Z,6.56
2019-02-10T04:26:20.575Z,6.57
2019-02-10T04:29:10.300Z,6.34
2019-02-10T04:31:53.699Z,6.49
2019-02-10T04:34:43.399Z,6.50
2019-02-10T04:37:26.859Z,6.47
2019-02-10T04:40:16.552Z,6.35
2019-02-10T04:42:58.708Z,6.39
2019-02-10T04:45:48.421Z,6.44
2019-02-10T04:48:30.639Z,6.47
2019-02-10T04:51:13.393Z,6.48
2019-02-10T04:54:03.151Z,6.49
2019-02-10T04:56:52.841Z,6.45
2019-02-10T04:59:42.527Z,6.42
2019-02-10T05:02:32.281Z,6.27
2019-02-10T05:05:14.361Z,6.23
2019-02-10T05:08:04.081Z,6.30
2019-02-10T05:10:46.286Z,6.32
2019-02-10T05:13:35.969Z,6.51
2019-02-10T05:16:19.793Z,6.50
2019-02-10T05:19:09.498Z,6.48
2019-02-10T05:21:52.168Z,6.62
2019-02-10T05:24:41.858Z,6.62
2019-02-10T05:27:24.505Z,6.85
2019-02-10T05:30:14.361Z,6.86
2019-02-10T05:32:56.886Z,6.93
2019-02-10T05:35:46.617Z,6.97
2019-02-10T05:38:29.006Z,7.00
2019-02-10T05:41:18.730Z,6.98
2019-02-10T05:44:00.962Z,6.85
2019-02-10T05:46:50.703Z,6.98
2019-02-10T05:49:32.800Z,6.97
2019-02-10T05:52:22.516Z,6.96
2019-02-10T05:55:04.865Z,6.92
2019-02-10T05:57:54.591Z,6.93
2019-02-10T06:00:37.751Z,6.90
2019-02-10T06:06:28.778Z,6.90
2019-02-10T06:09:18.482Z,6.91
2019-02-10T06:12:01.068Z,6.93
2019-02-10T06:14:50.776Z,6.80
2019-02-10T06:17:32.960Z,6.98
2019-02-10T06:20:41.821Z,6.81
2019-02-10T06:23:23.814Z,7.00
2019-02-10T06:25:54.452Z,6.95
2019-02-10T06:28:44.202Z,6.90
2019-02-10T06:31:26.670Z,6.85
2019-02-10T06:34:16.454Z,6.84
2019-02-10T06:37:06.274Z,6.79
2019-02-10T06:39:55.998Z,6.77
2019-02-10T06:42:45.742Z,6.75
2019-02-10T06:45:35.445Z,6.76
2019-02-10T06:48:18.817Z,6.68
2019-02-10T06:51:08.559Z,6.72
2019-02-10T06:53:50.609Z,6.67
2019-02-10T06:56:40.355Z,6.64
2019-02-10T06:59:41.775Z,6.75
2019-02-10T07:02:56.439Z,6.81
2019-02-10T07:05:39.382Z,6.63
2019-02-10T07:08:30.680Z,6.76
2019-02-10T07:11:13.221Z,6.78
2019-02-10T07:14:04.043Z,6.85
2019-02-10T07:17:05.732Z,6.87
2019-02-10T07:20:33.587Z,6.82
2019-02-10T07:23:37.623Z,6.81
2019-02-10T07:27:05.459Z,6.99
2019-02-10T07:29:58.726Z,6.96
2019-02-10T07:32:50.929Z,6.88
2019-02-10T07:35:53.224Z,6.94
2019-02-10T07:39:06.067Z,7.01
2019-02-10T07:42:33.979Z,7.18
2019-02-10T07:45:26.677Z,7.13
2019-02-10T07:48:54.575Z,7.10
2019-02-10T07:52:22.492Z,7.16
2019-02-10T07:55:50.469Z,7.30
2019-02-10T07:58:36.727Z,7.26
2019-02-10T08:02:04.603Z,7.22
2019-02-10T08:05:00.226Z,7.44
2019-02-10T08:08:16.681Z,7.48
2019-02-10T08:11:18.219Z,7.52
2019-02-10T08:14:46.043Z,7.51
2019-02-10T08:17:48.945Z,7.45
2019-02-10T08:21:16.848Z,7.56
2019-02-10T08:24:22.639Z,7.67
2019-02-10T08:27:50.457Z,7.63
2019-02-10T08:30:40.111Z,7.57
2019-02-10T08:34:07.979Z,7.57
2019-02-10T08:37:00.401Z,7.64
2019-02-10T08:40:28.245Z,7.70
2019-02-10T08:43:21.577Z,7.70
2019-02-10T08:46:49.455Z,7.86
2019-02-10T08:49:50.713Z,7.88
2019-02-10T08:53:01.983Z,8.01
2019-02-10T08:55:44.230Z,8.18
2019-02-10T08:58:34.015Z,8.34
2019-02-10T09:01:16.342Z,8.46
2019-02-10T09:04:06.119Z,8.61
2019-02-10T09:06:48.488Z,8.68
2019-02-10T09:12:36.287Z,9.04
2019-02-10T09:15:26.017Z,9.12
2019-02-10T09:18:08.230Z,9.22
2019-02-10T09:20:58.142Z,9.27
2019-02-10T09:23:47.880Z,9.20
2019-02-10T09:26:30.053Z,9.20
2019-02-10T09:29:19.807Z,9.23
2019-02-10T09:32:09.577Z,9.12
2019-02-10T09:34:51.792Z,9.16
2019-02-10T09:37:41.674Z,9.28
2019-02-10T09:40:31.701Z,9.38
2019-02-10T09:43:21.436Z,9.41
2019-02-10T09:46:03.771Z,9.55
2019-02-10T09:48:53.570Z,9.75
2019-02-10T09:51:43.364Z,9.73
2019-02-10T09:54:33.088Z,9.87
2019-02-10T09:57:23.108Z,10.05
2019-02-10T10:00:05.424Z,10.03
2019-02-10T10:02:55.177Z,10.02
2019-02-10T10:05:37.523Z,10.30
2019-02-10T10:08:27.278Z,10.36
2019-02-10T10:11:09.600Z,10.01
2019-02-10T10:13:59.301Z,9.98
2019-02-10T10:17:08.162Z,9.98
2019-02-10T10:19:50.293Z,10.10
2019-02-10T10:22:40.123Z,10.02
2019-02-10T10:25:30.214Z,10.23
2019-02-10T10:28:20.064Z,10.12
2019-02-10T10:31:09.866Z,10.03
2019-02-10T10:33:59.694Z,9.96
2019-02-10T10:36:49.456Z,9.94
2019-02-10T10:39:39.381Z,9.86
2019-02-10T10:48:31.982Z,9.69
2019-02-10T10:51:21.768Z,9.74
2019-02-10T10:54:04.433Z,9.76
2019-02-10T10:56:54.225Z,9.70
2019-02-10T10:59:44.068Z,9.73
2019-02-10T11:02:33.898Z,9.86
2019-02-10T11:05:23.727Z,9.89
2019-02-10T11:08:13.494Z,10.03
2019-02-10T11:10:55.858Z,9.97
2019-02-10T11:13:45.620Z,10.21
2019-02-10T11:16:35.470Z,10.29
2019-02-10T11:19:25.244Z,10.34
2019-02-10T11:22:15.045Z,10.36
2019-02-10T11:25:05.104Z,10.52
2019-02-10T11:27:54.850Z,10.40
2019-02-10T11:30:37.177Z,10.50
2019-02-10T11:33:27.129Z,10.38
2019-02-10T11:36:16.911Z,10.48
2019-02-10T11:42:21.902Z,10.59
2019-02-10T11:45:04.303Z,10.61
2019-02-10T11:47:54.114Z,10.69
2019-02-10T11:50:36.245Z,10.63
2019-02-10T11:53:26.045Z,10.48
2019-02-10T11:56:10.835Z,10.47
2019-02-10T11:59:00.601Z,10.40
2019-02-10T12:01:42.855Z,10.46
2019-02-10T12:04:32.581Z,10.46
2019-02-10T12:07:22.548Z,10.46
2019-02-10T12:10:04.625Z,10.43
2019-02-10T12:12:54.440Z,10.69
2019-02-10T12:15:44.185Z,10.81
2019-02-10T12:18:33.997Z,10.93
2019-02-10T12:21:42.911Z,10.97
2019-02-10T12:24:32.721Z,10.94
2019-02-10T12:27:22.499Z,10.87
2019-02-10T12:36:39.695Z,10.37
2019-02-10T12:39:29.444Z,10.31
2019-02-10T12:42:12.375Z,9.99
2019-02-10T12:45:02.315Z,10.04
2019-02-10T12:47:44.595Z,9.95
2019-02-10T12:50:34.467Z,9.87
2019-02-10T12:53:24.357Z,9.80
2019-02-10T12:56:14.244Z,9.73
2019-02-10T12:59:16.556Z,9.68
2019-02-10T13:01:59.004Z,9.62
2019-02-10T13:04:48.709Z,9.46
2019-02-10T13:07:30.670Z,9.61
2019-02-10T13:10:20.415Z,9.65
2019-02-10T13:13:02.748Z,9.68
2019-02-10T13:18:48.048Z,9.87
2019-02-10T13:21:37.862Z,10.06
2019-02-10T13:24:27.642Z,10.10
2019-02-10T13:27:36.655Z,10.14
2019-02-10T13:30:26.460Z,10.16
2019-02-10T13:33:16.250Z,10.18
2019-02-10T13:36:06.013Z,10.20
2019-02-10T13:38:55.729Z,10.25
2019-02-10T13:41:38.511Z,10.25
2019-02-10T13:44:28.264Z,10.34
2019-02-10T13:47:11.196Z,10.34
2019-02-10T13:50:00.970Z,10.20
2019-02-10T13:52:51.050Z,10.35
2019-02-10T13:55:40.796Z,10.43
2019-02-10T13:58:30.680Z,10.47
2019-02-10T14:01:20.482Z,10.48
2019-02-10T14:04:10.250Z,10.46
2019-02-10T14:07:00.044Z,10.46
2019-02-10T14:10:03.898Z,10.30
2019-02-10T14:12:46.469Z,10.47
2019-02-10T14:15:36.206Z,10.47
2019-02-10T14:18:19.025Z,10.47
2019-02-10T14:21:08.761Z,10.34
2019-02-10T14:23:51.150Z,10.49
2019-02-10T14:26:40.966Z,10.51
2019-02-10T14:29:24.947Z,10.44
2019-02-10T14:32:14.703Z,10.49
2019-02-10T14:34:57.629Z,10.51
2019-02-10T14:37:47.332Z,10.50
2019-02-10T14:40:33.679Z,10.48
2019-02-10T14:43:21.349Z,10.46
2019-02-10T14:46:03.749Z,10.48
2019-02-10T14:48:53.531Z,10.48
2019-02-10T14:51:36.018Z,10.39
2019-02-10T14:54:25.798Z,10.56
2019-02-10T14:57:08.692Z,10.57
2019-02-10T14:59:58.441Z,10.53
2019-02-10T15:02:48.131Z,10.51
2019-02-10T15:05:30.848Z,10.52
2019-02-10T15:08:20.694Z,10.47
2019-02-10T15:11:10.398Z,10.46
2019-02-10T15:14:00.092Z,10.42
2019-02-10T15:16:49.831Z,10.47
2019-02-10T15:19:32.055Z,10.41
2019-02-10T15:22:42.701Z,10.43
2019-02-10T15:25:32.599Z,10.42
2019-02-10T15:28:22.331Z,10.42
2019-02-10T15:31:12.069Z,10.40
2019-02-10T15:34:01.828Z,10.36
2019-02-10T15:36:51.619Z,10.36
2019-02-10T15:39:41.401Z,10.34
2019-02-10T15:42:31.168Z,10.29
2019-02-10T15:45:20.919Z,10.27
2019-02-10T15:48:10.669Z,10.23
2019-02-10T15:51:00.429Z,10.12
2019-02-10T15:53:50.151Z,9.98
2019-02-10T15:56:39.973Z,9.72
2019-02-10T15:59:29.926Z,9.85
2019-02-10T16:02:19.687Z,9.65
2019-02-10T16:05:01.555Z,9.42
2019-02-10T16:07:51.343Z,9.23
2019-02-10T16:10:41.154Z,8.85
2019-02-10T16:13:30.901Z,8.16
2019-02-10T16:16:20.635Z,7.92
2019-02-10T16:19:10.329Z,7.49
2019-02-10T16:21:52.299Z,7.27
2019-02-10T16:24:42.099Z,7.16
2019-02-10T16:27:32.039Z,6.86
2019-02-10T16:30:21.837Z,6.64
2019-02-10T16:33:11.625Z,6.55
2019-02-10T16:36:20.595Z,6.37
2019-02-10T16:39:29.370Z,6.45
2019-02-10T16:42:19.063Z,6.16
2019-02-10T16:45:01.935Z,6.23
2019-02-10T16:47:51.658Z,6.08
2019-02-10T16:50:41.479Z,6.09
2019-02-10T16:53:31.241Z,6.18
2019-02-10T16:56:21.020Z,6.17
2019-02-10T16:59:10.829Z,6.14
2019-02-10T17:02:19.699Z,6.05
2019-02-10T17:05:09.490Z,6.13
2019-02-10T17:07:59.243Z,6.16
2019-02-10T17:11:14.199Z,6.20
2019-02-10T17:13:51.969Z,6.18
2019-02-10T17:16:41.893Z,6.15
2019-02-10T17:19:31.758Z,6.00
2019-02-10T17:22:21.757Z,5.79
2019-02-10T17:25:13.373Z,5.38
2019-02-10T17:28:03.403Z,5.27
2019-02-10T17:30:53.193Z,5.08
2019-02-10T17:33:42.970Z,4.98
2019-02-10T17:36:32.799Z,4.91
2019-02-10T17:39:24.202Z,4.89
2019-02-10T17:42:14.020Z,4.84
2019-02-10T17:45:03.798Z,4.88
2019-02-10T17:47:53.583Z,4.86
2019-02-10T17:50:43.380Z,4.85
2019-02-10T17:53:33.121Z,4.75
2019-02-10T17:56:22.860Z,4.91
2019-02-10T17:59:12.840Z,4.99
2019-02-10T18:02:02.608Z,5.01
2019-02-10T18:04:45.119Z,5.09
2019-02-10T18:07:34.822Z,5.14
2019-02-10T18:10:17.487Z,5.16
2019-02-10T18:13:07.226Z,5.19
2019-02-10T18:16:08.473Z,5.25
2019-02-10T18:19:17.022Z,5.29
2019-02-10T18:22:11.776Z,5.39
2019-02-10T18:25:20.412Z,5.42
2019-02-10T18:28:18.846Z,5.46
2019-02-10T18:31:24.546Z,5.48
2019-02-10T18:34:19.704Z,5.53
2019-02-10T18:37:28.342Z,5.51
2019-02-10T18:40:36.964Z,5.52
2019-02-10T18:43:33.412Z,5.57
2019-02-10T18:46:11.672Z,5.59
2019-02-10T18:49:20.286Z,5.55
2019-02-10T18:52:28.850Z,5.55
2019-02-10T18:55:30.201Z,5.57
2019-02-10T18:58:26.391Z,5.13
2019-02-10T19:01:27.602Z,5.04
2019-02-10T19:04:36.146Z,5.04
2019-02-10T19:07:36.944Z,4.80
2019-02-10T19:10:45.560Z,4.52
2019-02-10T19:13:47.089Z,4.70
2019-02-10T19:16:55.689Z,4.62
2019-02-10T19:19:56.981Z,4.83
2019-02-10T19:23:05.583Z,4.76
2019-02-10T19:25:57.750Z,4.71
2019-02-10T19:29:06.268Z,4.76
2019-02-10T19:32:07.645Z,4.91
2019-02-10T19:35:16.240Z,5.08
2019-02-10T19:38:18.200Z,5.24
2019-02-10T19:41:07.895Z,5.28
2019-02-10T19:44:16.472Z,5.21
2019-02-10T19:47:11.745Z,5.03
2019-02-10T19:50:20.361Z,4.80
2019-02-10T19:53:20.674Z,4.74
2019-02-10T19:56:29.302Z,4.77
2019-02-10T19:59:34.741Z,4.74
2019-02-10T20:05:48.332Z,4.94
2019-02-10T20:08:49.945Z,4.98
2019-02-10T20:12:03.963Z,5.10
2019-02-10T20:15:08.864Z,5.09
2019-02-10T20:18:02.487Z,4.93
2019-02-10T20:21:08.505Z,5.02
2019-02-10T20:24:05.375Z,4.87
2019-02-10T20:27:13.967Z,5.00
2019-02-10T20:30:22.661Z,4.98
2019-02-10T20:33:31.296Z,4.92
2019-02-10T20:36:30.087Z,5.02
2019-02-10T20:39:38.727Z,5.01
2019-02-10T20:42:47.317Z,4.95
2019-02-10T20:45:55.889Z,4.99
2019-02-10T20:48:57.023Z,4.96
2019-02-10T20:51:46.475Z,4.93
2019-02-10T20:54:50.830Z,4.83
2019-02-10T20:57:59.371Z,4.68
2019-02-10T21:00:51.558Z,4.50
2019-02-10T21:04:00.096Z,4.31
2019-02-10T21:06:52.014Z,4.15
2019-02-10T21:10:00.574Z,4.00
2019-02-10T21:13:01.452Z,3.71
2019-02-10T21:16:10.008Z,3.90
2019-02-10T21:19:10.909Z,3.85
2019-02-10T21:22:19.443Z,3.83
2019-02-10T21:25:20.560Z,3.72
2019-02-10T21:28:29.159Z,3.78
2019-02-10T21:31:34.438Z,3.71
2019-02-10T21:34:42.968Z,3.72
2019-02-10T21:41:02.369Z,3.68
2019-02-10T21:44:05.674Z,3.74
2019-02-10T21:47:14.344Z,3.73
2019-02-10T21:49:57.147Z,3.52
2019-02-10T21:52:46.971Z,3.58
2019-02-10T21:55:36.754Z,3.55
2019-02-10T21:58:27.006Z,3.65
2019-02-10T22:01:16.928Z,3.77
2019-02-10T22:04:06.735Z,3.77
2019-02-10T22:06:56.660Z,3.62
2019-02-10T22:09:46.712Z,3.82
2019-02-10T22:12:37.168Z,3.81
2019-02-10T22:15:21.022Z,3.87
2019-02-10T22:18:10.782Z,3.87
2019-02-10T22:20:53.163Z,3.88
2019-02-10T22:23:43.128Z,3.75
2019-02-10T22:29:36.572Z,3.98
2019-02-10T22:32:26.346Z,3.77
2019-02-10T22:35:16.161Z,3.96
2019-02-10T22:38:06.046Z,3.68
2019-02-10T22:41:14.992Z,3.81
2019-02-10T22:44:04.766Z,3.86
2019-02-10T22:46:54.694Z,3.88
2019-02-10T22:49:44.619Z,3.84
2019-02-10T22:52:34.384Z,3.80
2019-02-10T22:55:24.146Z,3.59
2019-02-10T22:58:13.858Z,3.82
2019-02-10T23:01:06.138Z,3.75
2019-02-10T23:03:56.010Z,3.73
2019-02-10T23:06:46.171Z,3.69
2019-02-10T23:09:36.153Z,3.61
2019-02-10T23:12:26.170Z,3.57
2019-02-10T23:15:15.954Z,3.67
2019-02-10T23:18:06.086Z,3.69
2019-02-10T23:20:56.213Z,3.60
2019-02-10T23:23:45.950Z,3.61
2019-02-10T23:26:35.753Z,3.63
2019-02-10T23:29:18.528Z,3.60
2019-02-10T23:32:08.563Z,3.35
2019-02-10T23:34:51.379Z,3.59
2019-02-10T23:37:41.877Z,3.52
2019-02-10T23:40:31.678Z,3.40
2019-02-10T23:43:21.157Z,3.20
2019-02-10T23:46:10.969Z,3.37
2019-02-10T23:49:00.683Z,3.32
2019-02-10T23:51:43.269Z,3.29
2019-02-10T23:54:33.078Z,3.28
2019-02-10T23:57:22.894Z,3.33
